createdAt,value
2022-07-28T00:01:05.774Z,3.33
2022-07-28T00:03:33.935Z,3.37
2022-07-28T00:06:02.108Z,3.63
2022-07-28T00:08:32.252Z,3.80
2022-07-28T00:11:00.375Z,4.07
2022-07-28T00:13:29.871Z,3.77
2022-07-28T00:15:58.037Z,3.10
2022-07-28T00:18:26.257Z,3.20
2022-07-28T00:20:54.426Z,3.40
2022-07-28T00:23:22.546Z,3.57
2022-07-28T00:25:50.796Z,3.97
2022-07-28T00:28:18.990Z,3.37
2022-07-28T00:30:48.508Z,4.07
2022-07-28T00:33:16.695Z,3.90
2022-07-28T00:35:48.440Z,3.67
2022-07-28T00:38:16.930Z,4.10
2022-07-28T00:41:02.762Z,3.63
2022-07-28T00:43:31.019Z,4.00
2022-07-28T00:46:00.576Z,3.50
2022-07-28T00:48:28.775Z,3.47
2022-07-28T00:50:57.070Z,3.53
2022-07-28T00:53:25.485Z,3.97
2022-07-28T00:56:02.995Z,3.73
2022-07-28T00:58:35.491Z,3.37
2022-07-28T01:01:06.242Z,3.33
2022-07-28T01:03:36.267Z,3.40
2022-07-28T01:06:16.455Z,3.70
2022-07-28T01:08:57.868Z,3.43
2022-07-28T01:11:42.929Z,3.23
2022-07-28T01:14:18.093Z,4.10
2022-07-28T01:16:55.956Z,3.70
2022-07-28T01:19:38.320Z,3.67
2022-07-28T01:22:11.254Z,3.80
2022-07-28T01:24:56.061Z,3.17
2022-07-28T01:27:54.836Z,3.30
2022-07-28T01:30:36.535Z,3.40
2022-07-28T01:33:11.397Z,3.30
2022-07-28T01:35:46.466Z,3.10
2022-07-28T01:38:15.761Z,3.53
2022-07-28T01:40:50.346Z,3.27
2022-07-28T01:43:25.286Z,3.40
2022-07-28T01:45:57.157Z,3.13
2022-07-28T01:48:26.509Z,3.37
2022-07-28T01:50:56.953Z,3.43
2022-07-28T01:53:27.302Z,3.50
2022-07-28T01:55:58.516Z,3.60
2022-07-28T01:58:29.203Z,3.60
2022-07-28T02:01:00.510Z,3.67
2022-07-28T02:03:30.817Z,3.93
2022-07-28T02:06:02.641Z,3.23
2022-07-28T02:08:33.198Z,3.30
2022-07-28T02:11:19.336Z,3.67
2022-07-28T02:13:49.415Z,3.33
2022-07-28T02:16:22.677Z,3.83
2022-07-28T02:18:53.620Z,3.40
2022-07-28T02:21:23.145Z,3.50
2022-07-28T02:23:54.668Z,3.30
2022-07-28T02:26:29.955Z,3.33
2022-07-28T02:29:01.851Z,3.23
2022-07-28T02:31:39.338Z,3.70
2022-07-28T02:34:12.359Z,3.40
2022-07-28T02:36:48.470Z,3.80
2022-07-28T02:39:25.045Z,3.47
2022-07-28T02:42:00.023Z,3.53
2022-07-28T02:44:32.938Z,3.10
2022-07-28T02:47:07.057Z,3.60
2022-07-28T02:49:37.381Z,3.00
2022-07-28T02:52:07.869Z,3.30
2022-07-28T02:54:37.433Z,3.20
2022-07-28T02:57:07.871Z,2.97
2022-07-28T02:59:37.685Z,3.00
2022-07-28T03:02:09.400Z,2.90
2022-07-28T03:04:55.790Z,3.20
2022-07-28T03:07:24.262Z,3.30
2022-07-28T03:09:52.786Z,3.60
2022-07-28T03:12:21.105Z,3.23
2022-07-28T03:14:49.483Z,3.10
2022-07-28T03:17:19.729Z,3.40
2022-07-28T03:19:47.981Z,2.80
2022-07-28T03:22:16.670Z,3.00
2022-07-28T03:24:49.010Z,3.10
2022-07-28T03:27:25.548Z,3.30
2022-07-28T03:30:03.645Z,3.30
2022-07-28T03:32:36.730Z,2.80
2022-07-28T03:35:05.624Z,3.30
2022-07-28T03:37:39.082Z,3.23
2022-07-28T03:40:12.001Z,3.10
2022-07-28T03:42:42.131Z,2.90
2022-07-28T03:45:11.576Z,2.60
2022-07-28T03:47:50.259Z,2.87
2022-07-28T03:50:18.679Z,3.10
2022-07-28T03:52:46.806Z,3.03
2022-07-28T03:55:16.766Z,2.80
2022-07-28T03:57:44.942Z,2.83
2022-07-28T04:00:16.044Z,3.00
2022-07-28T04:02:46.524Z,2.80
2022-07-28T04:05:19.931Z,3.30
2022-07-28T04:07:48.365Z,2.80
2022-07-28T04:10:19.117Z,3.20
2022-07-28T04:12:52.089Z,2.80
2022-07-28T04:15:20.910Z,3.33
2022-07-28T04:17:51.873Z,3.23
2022-07-28T04:20:22.414Z,3.10
2022-07-28T04:22:51.624Z,3.27
2022-07-28T04:25:22.015Z,3.20
2022-07-28T04:27:50.891Z,3.80
2022-07-28T04:30:21.306Z,3.60
2022-07-28T04:32:53.057Z,4.33
2022-07-28T04:35:24.086Z,4.07
2022-07-28T04:37:55.126Z,4.83
2022-07-28T04:40:23.389Z,3.90
2022-07-28T04:42:51.619Z,4.70
2022-07-28T04:45:19.880Z,3.83
2022-07-28T04:47:49.426Z,4.17
2022-07-28T04:50:21.382Z,3.70
2022-07-28T04:52:50.144Z,4.00
2022-07-28T04:55:19.470Z,4.00
2022-07-28T04:57:48.176Z,3.50
2022-07-28T05:00:17.230Z,3.63
2022-07-28T05:02:48.003Z,3.33
2022-07-28T05:05:16.252Z,3.83
2022-07-28T05:07:45.825Z,3.77
2022-07-28T05:10:14.018Z,3.77
2022-07-28T05:12:43.005Z,4.13
2022-07-28T05:15:11.800Z,3.67
2022-07-28T05:17:40.122Z,4.13
2022-07-28T05:20:09.401Z,4.40
2022-07-28T05:22:47.221Z,4.80
2022-07-28T05:25:20.599Z,4.30
2022-07-28T05:27:49.868Z,4.60
2022-07-28T05:30:22.315Z,4.60
2022-07-28T05:32:51.087Z,4.33
2022-07-28T05:35:19.364Z,4.37
2022-07-28T05:37:48.869Z,4.00
2022-07-28T05:40:18.339Z,3.57
2022-07-28T05:42:47.796Z,3.17
2022-07-28T05:45:17.788Z,2.73
2022-07-28T05:47:48.588Z,3.20
2022-07-28T05:50:18.171Z,3.03
2022-07-28T05:52:48.615Z,2.27
2022-07-28T05:55:17.696Z,2.30
2022-07-28T05:57:46.741Z,2.90
2022-07-28T06:00:17.540Z,2.27
2022-07-28T06:02:49.393Z,2.20
2022-07-28T06:05:19.525Z,3.03
2022-07-28T06:07:50.963Z,3.20
2022-07-28T06:10:21.274Z,2.67
2022-07-28T06:12:51.267Z,2.80
2022-07-28T06:15:22.351Z,3.20
2022-07-28T06:17:52.438Z,2.90
2022-07-28T06:20:21.853Z,3.43
2022-07-28T06:22:55.979Z,3.00
2022-07-28T06:25:26.736Z,2.87
2022-07-28T06:27:57.267Z,2.10
2022-07-28T06:30:25.952Z,2.30
2022-07-28T06:32:54.492Z,2.63
2022-07-28T06:35:23.198Z,2.10
2022-07-28T06:37:55.105Z,2.30
2022-07-28T06:40:23.675Z,1.80
2022-07-28T06:42:52.582Z,1.73
2022-07-28T06:45:21.911Z,1.83
2022-07-28T06:47:50.637Z,1.53
2022-07-28T06:50:24.535Z,1.53
2022-07-28T06:52:56.706Z,1.70
2022-07-28T06:55:25.257Z,1.37
2022-07-28T06:57:54.309Z,1.50
2022-07-28T07:00:22.718Z,1.50
2022-07-28T07:02:50.952Z,1.40
2022-07-28T07:05:19.105Z,1.70
2022-07-28T07:07:47.328Z,1.50
2022-07-28T07:10:16.854Z,1.80
2022-07-28T07:12:45.008Z,5.13
2022-07-28T07:15:13.653Z,3.90
2022-07-28T07:17:42.058Z,2.37
2022-07-28T07:20:17.105Z,2.13
2022-07-28T07:22:48.084Z,2.10
2022-07-28T07:25:19.857Z,1.60
2022-07-28T07:27:48.530Z,2.20
2022-07-28T07:30:18.084Z,3.07
2022-07-28T07:32:46.503Z,2.63
2022-07-28T07:35:14.707Z,2.03
2022-07-28T07:37:42.898Z,1.83
2022-07-28T07:40:11.855Z,2.30
2022-07-28T07:42:41.359Z,2.60
2022-07-28T07:45:11.134Z,2.60
2022-07-28T07:47:39.369Z,2.30
2022-07-28T07:50:11.361Z,2.30
2022-07-28T07:52:39.552Z,1.97
2022-07-28T07:55:09.311Z,2.40
2022-07-28T07:57:37.498Z,3.20
2022-07-28T08:00:08.926Z,2.20
2022-07-28T08:02:57.238Z,2.90
2022-07-28T08:05:34.811Z,2.30
2022-07-28T08:08:05.809Z,1.90
2022-07-28T08:10:34.460Z,1.50
2022-07-28T08:13:03.178Z,2.10
2022-07-28T08:15:32.896Z,2.57
2022-07-28T08:18:01.139Z,2.20
2022-07-28T08:20:29.917Z,2.23
2022-07-28T08:22:59.369Z,2.00
2022-07-28T08:25:27.725Z,2.00
2022-07-28T08:27:55.875Z,2.10
2022-07-28T08:30:27.449Z,1.87
2022-07-28T08:33:02.809Z,1.30
2022-07-28T08:35:34.109Z,1.40
2022-07-28T08:38:04.684Z,1.60
2022-07-28T08:40:33.443Z,1.80
2022-07-28T08:43:09.981Z,1.40
2022-07-28T08:45:40.129Z,1.47
2022-07-28T08:48:14.349Z,1.30
2022-07-28T08:50:45.252Z,1.50
2022-07-28T08:53:16.007Z,1.83
2022-07-28T08:55:45.834Z,1.50
2022-07-28T08:58:14.535Z,1.15
2022-07-28T09:00:43.277Z,1.50
2022-07-28T09:03:14.221Z,1.30
2022-07-28T09:05:44.863Z,1.20
2022-07-28T09:08:13.879Z,1.20
2022-07-28T09:10:44.598Z,1.08
2022-07-28T09:13:13.337Z,1.50
2022-07-28T09:15:41.973Z,1.20
2022-07-28T09:18:10.144Z,1.20
2022-07-28T09:20:41.109Z,1.23
2022-07-28T09:23:42.243Z,1.48
2022-07-28T09:26:11.453Z,1.10
2022-07-28T09:28:52.667Z,1.45
2022-07-28T09:31:22.557Z,1.50
2022-07-28T09:34:03.484Z,1.67
2022-07-28T09:36:40.874Z,2.20
2022-07-28T09:39:09.605Z,2.20
2022-07-28T09:41:55.243Z,1.88
2022-07-28T09:44:26.515Z,2.05
2022-07-28T09:46:55.095Z,1.85
2022-07-28T09:49:42.073Z,1.73
2022-07-28T09:52:13.114Z,1.35
2022-07-28T09:55:00.616Z,1.40
2022-07-28T09:57:30.911Z,1.00
2022-07-28T10:00:02.284Z,1.70
2022-07-28T10:02:32.502Z,1.50
2022-07-28T10:05:01.789Z,1.40
2022-07-28T10:07:33.749Z,1.02
2022-07-28T10:10:04.727Z,1.20
2022-07-28T10:12:35.887Z,1.35
2022-07-28T10:15:35.341Z,1.30
2022-07-28T10:18:04.499Z,1.20
2022-07-28T10:20:34.346Z,1.40
2022-07-28T10:23:06.326Z,1.00
2022-07-28T10:25:36.037Z,1.00
2022-07-28T10:28:05.527Z,1.00
2022-07-28T10:30:41.231Z,1.15
2022-07-28T10:33:17.220Z,1.65
2022-07-28T10:35:55.150Z,1.30
2022-07-28T10:38:29.655Z,1.00
2022-07-28T10:41:02.977Z,0.98
2022-07-28T10:43:31.905Z,1.15
2022-07-28T10:46:06.264Z,1.33
2022-07-28T10:48:38.734Z,0.85
2022-07-28T10:51:07.306Z,1.13
2022-07-28T10:53:44.833Z,1.00
2022-07-28T10:56:24.157Z,1.10
2022-07-28T10:59:05.485Z,1.50
2022-07-28T11:01:48.443Z,1.33
2022-07-28T11:04:55.419Z,1.40
2022-07-28T11:07:23.715Z,2.08
2022-07-28T11:09:54.077Z,1.05
2022-07-28T11:12:46.962Z,1.10
2022-07-28T11:15:33.013Z,1.48
2022-07-28T11:18:09.291Z,0.90
2022-07-28T11:21:09.399Z,1.10
2022-07-28T11:23:56.463Z,1.20
2022-07-28T11:26:38.513Z,1.02
2022-07-28T11:29:23.409Z,1.00
2022-07-28T11:31:59.544Z,0.98
2022-07-28T11:34:28.111Z,0.90
2022-07-28T11:37:05.252Z,1.00
2022-07-28T11:39:42.892Z,1.00
2022-07-28T11:42:32.207Z,0.75
2022-07-28T11:45:37.784Z,1.00
2022-07-28T11:48:15.455Z,1.70
2022-07-28T11:50:44.586Z,1.10
2022-07-28T11:53:12.755Z,0.70
2022-07-28T11:55:49.237Z,1.00
2022-07-28T11:58:27.655Z,0.80
2022-07-28T12:01:13.296Z,1.25
2022-07-28T12:03:49.499Z,2.88
2022-07-28T12:06:28.997Z,1.50
2022-07-28T12:09:00.028Z,1.30
2022-07-28T12:11:32.136Z,0.85
2022-07-28T12:14:03.370Z,1.02
2022-07-28T12:16:35.328Z,0.90
2022-07-28T12:19:05.348Z,0.70
2022-07-28T12:21:46.263Z,0.90
2022-07-28T12:24:19.119Z,1.00
2022-07-28T12:26:50.271Z,0.95
2022-07-28T12:29:20.692Z,1.00
2022-07-28T12:31:59.135Z,0.85
2022-07-28T12:34:29.631Z,1.10
2022-07-28T12:37:02.027Z,0.95
2022-07-28T12:39:32.401Z,0.88
2022-07-28T12:42:06.230Z,1.00
2022-07-28T12:44:42.034Z,1.42
2022-07-28T12:47:13.120Z,2.60
2022-07-28T12:49:43.801Z,1.13
2022-07-28T12:52:21.570Z,1.40
2022-07-28T12:54:54.317Z,1.10
2022-07-28T12:57:48.122Z,1.23
2022-07-28T13:00:22.302Z,1.05
2022-07-28T13:02:52.552Z,1.10
2022-07-28T13:05:57.341Z,0.90
2022-07-28T13:08:29.566Z,1.00
2022-07-28T13:10:58.938Z,0.90
2022-07-28T13:13:31.383Z,1.08
2022-07-28T13:16:14.895Z,0.90
2022-07-28T13:18:44.044Z,0.95
2022-07-28T13:21:12.248Z,0.90
2022-07-28T13:23:40.772Z,0.90
2022-07-28T13:26:09.234Z,0.98
2022-07-28T13:28:37.430Z,0.90
2022-07-28T13:31:05.686Z,1.10
2022-07-28T13:33:35.302Z,0.90
2022-07-28T13:36:03.547Z,1.20
2022-07-28T13:38:32.960Z,1.23
2022-07-28T13:41:03.868Z,1.42
2022-07-28T13:43:36.249Z,0.93
2022-07-28T13:46:05.370Z,0.80
2022-07-28T13:48:40.343Z,0.80
2022-07-28T13:51:26.323Z,1.05
2022-07-28T13:53:58.374Z,1.10
2022-07-28T13:56:26.592Z,0.85
2022-07-28T13:58:54.703Z,0.82
2022-07-28T14:01:23.570Z,0.90
2022-07-28T14:03:58.205Z,1.27
2022-07-28T14:06:27.204Z,1.63
2022-07-28T14:08:55.833Z,1.55
2022-07-28T14:11:25.109Z,1.30
2022-07-28T14:13:53.663Z,1.05
2022-07-28T14:16:24.975Z,0.70
2022-07-28T14:18:53.173Z,0.70
2022-07-28T14:21:22.663Z,0.70
2022-07-28T14:23:50.900Z,1.10
2022-07-28T14:26:35.531Z,0.60
2022-07-28T14:29:04.794Z,0.80
2022-07-28T14:31:39.944Z,0.70
2022-07-28T14:34:10.199Z,2.00
2022-07-28T14:36:39.782Z,1.55
2022-07-28T14:39:12.471Z,1.10
2022-07-28T14:41:42.659Z,0.80
2022-07-28T14:44:14.609Z,0.70
2022-07-28T14:46:45.963Z,0.90
2022-07-28T14:49:14.264Z,0.70
2022-07-28T14:51:45.045Z,0.68
2022-07-28T14:54:13.638Z,0.80
2022-07-28T14:56:43.991Z,0.80
2022-07-28T14:59:12.163Z,1.00
2022-07-28T15:01:43.361Z,0.93
2022-07-28T15:04:13.774Z,0.70
2022-07-28T15:06:43.835Z,0.88
2022-07-28T15:09:12.193Z,0.70
2022-07-28T15:11:41.923Z,0.88
2022-07-28T15:14:10.075Z,0.70
2022-07-28T15:16:38.457Z,0.70
2022-07-28T15:19:08.320Z,0.77
2022-07-28T15:21:39.706Z,1.08
2022-07-28T15:24:11.084Z,1.15
2022-07-28T15:26:39.459Z,1.17
2022-07-28T15:29:08.259Z,0.70
2022-07-28T15:31:37.678Z,0.88
2022-07-28T15:34:09.569Z,1.63
2022-07-28T15:36:40.242Z,2.53
2022-07-28T15:39:13.874Z,2.03
2022-07-28T15:41:43.017Z,1.10
2022-07-28T15:44:13.777Z,1.27
2022-07-28T15:46:43.120Z,0.75
2022-07-28T15:49:16.877Z,0.70
2022-07-28T15:51:45.100Z,0.70
2022-07-28T15:54:15.027Z,0.80
2022-07-28T15:56:43.406Z,1.33
2022-07-28T15:59:11.508Z,1.00
2022-07-28T16:01:45.190Z,1.10
2022-07-28T16:04:14.242Z,1.45
2022-07-28T16:07:00.662Z,1.10
2022-07-28T16:09:45.791Z,0.80
2022-07-28T16:12:14.964Z,0.80
2022-07-28T16:14:46.291Z,0.80
2022-07-28T16:17:14.722Z,0.88
2022-07-28T16:19:49.454Z,1.30
2022-07-28T16:22:18.772Z,0.80
2022-07-28T16:24:48.432Z,1.05
2022-07-28T16:27:16.947Z,0.95
2022-07-28T16:29:45.751Z,1.00
2022-07-28T16:32:17.142Z,0.80
2022-07-28T16:34:45.744Z,0.70
2022-07-28T16:37:19.034Z,0.80
2022-07-28T16:39:49.333Z,1.17
2022-07-28T16:42:17.990Z,0.82
2022-07-28T16:44:47.418Z,2.30
2022-07-28T16:47:16.011Z,1.55
2022-07-28T16:49:46.239Z,2.80
2022-07-28T16:52:15.079Z,3.20
2022-07-28T16:54:43.787Z,1.52
2022-07-28T16:57:13.588Z,1.30
2022-07-28T16:59:48.725Z,1.10
2022-07-28T17:02:19.109Z,0.85
2022-07-28T17:04:47.817Z,0.80
2022-07-28T17:07:16.229Z,0.90
2022-07-28T17:09:46.897Z,0.90
2022-07-28T17:12:16.520Z,0.70
2022-07-28T17:14:45.969Z,1.13
2022-07-28T17:17:14.143Z,0.80
2022-07-28T17:19:46.787Z,1.10
2022-07-28T17:22:15.784Z,0.88
2022-07-28T17:24:48.319Z,1.33
2022-07-28T17:27:37.844Z,1.15
2022-07-28T17:30:07.515Z,0.80
2022-07-28T17:32:35.761Z,0.80
2022-07-28T17:35:04.127Z,0.80
2022-07-28T17:37:32.321Z,0.75
2022-07-28T17:40:01.016Z,0.68
2022-07-28T17:42:35.177Z,0.98
2022-07-28T17:45:03.336Z,0.95
2022-07-28T17:47:36.377Z,1.33
2022-07-28T17:50:09.271Z,1.55
2022-07-28T17:52:37.435Z,1.00
2022-07-28T17:55:26.581Z,0.88
2022-07-28T17:58:10.048Z,0.77
2022-07-28T18:00:38.379Z,0.90
2022-07-28T18:03:11.456Z,1.02
2022-07-28T18:05:40.510Z,4.25
2022-07-28T18:08:09.498Z,1.88
2022-07-28T18:10:38.528Z,1.15
2022-07-28T18:13:13.947Z,1.10
2022-07-28T18:15:43.004Z,1.15
2022-07-28T18:18:14.540Z,1.00
2022-07-28T18:20:42.856Z,1.30
2022-07-28T18:23:14.476Z,0.80
2022-07-28T18:25:45.219Z,1.00
2022-07-28T18:28:19.381Z,0.80
2022-07-28T18:30:47.816Z,1.00
2022-07-28T18:33:17.588Z,0.95
2022-07-28T18:35:46.856Z,0.85
2022-07-28T18:38:15.192Z,0.80
2022-07-28T18:40:43.718Z,1.10
2022-07-28T18:43:16.018Z,0.90
2022-07-28T18:45:44.407Z,1.02
2022-07-28T18:48:15.028Z,0.95
2022-07-28T18:50:46.176Z,1.10
2022-07-28T18:53:28.295Z,1.00
2022-07-28T18:55:56.451Z,0.80
2022-07-28T18:58:26.358Z,1.33
2022-07-28T19:00:54.662Z,1.00
2022-07-28T19:03:22.848Z,1.10
2022-07-28T19:05:52.309Z,1.20
2022-07-28T19:08:20.525Z,1.00
2022-07-28T19:10:48.695Z,1.47
2022-07-28T19:13:16.899Z,1.70
2022-07-28T19:15:48.768Z,1.70
2022-07-28T19:18:19.853Z,1.43
2022-07-28T19:20:48.089Z,1.53
2022-07-28T19:23:16.221Z,1.57
2022-07-28T19:25:44.428Z,1.17
2022-07-28T19:28:12.644Z,1.60
2022-07-28T19:30:43.713Z,1.20
2022-07-28T19:33:19.756Z,1.40
2022-07-28T19:35:48.087Z,1.13
2022-07-28T19:38:19.295Z,1.00
2022-07-28T19:40:49.280Z,1.20
2022-07-28T19:43:17.500Z,1.20
2022-07-28T19:45:47.565Z,1.00
2022-07-28T19:48:22.288Z,1.00
2022-07-28T19:50:52.360Z,1.07
2022-07-28T19:53:25.329Z,1.10
2022-07-28T19:56:09.106Z,1.30
2022-07-28T19:58:37.704Z,1.20
2022-07-28T20:01:09.740Z,1.30
2022-07-28T20:04:01.825Z,1.10
2022-07-28T20:06:27.441Z,1.40
2022-07-28T20:08:56.930Z,1.40
2022-07-28T20:11:25.106Z,1.20
2022-07-28T20:13:53.516Z,3.10
2022-07-28T20:16:22.745Z,3.10
2022-07-28T20:18:53.044Z,2.03
2022-07-28T20:21:24.027Z,1.97
2022-07-28T20:23:55.301Z,1.87
2022-07-28T20:26:26.099Z,2.13
2022-07-28T20:28:54.810Z,2.47
2022-07-28T20:31:23.100Z,2.13
2022-07-28T20:33:53.948Z,2.63
2022-07-28T20:36:29.636Z,2.80
2022-07-28T20:38:58.192Z,3.00
2022-07-28T20:41:31.399Z,2.80
2022-07-28T20:44:27.387Z,2.47
2022-07-28T20:46:48.228Z,2.53
2022-07-28T20:49:20.064Z,2.63
2022-07-28T20:51:50.879Z,2.20
2022-07-28T20:54:19.739Z,3.43
2022-07-28T20:56:48.415Z,2.63
2022-07-28T20:59:16.672Z,2.30
2022-07-28T21:01:45.061Z,2.30
2022-07-28T21:04:15.551Z,3.07
2022-07-28T21:06:50.151Z,1.90
2022-07-28T21:09:20.516Z,2.20
2022-07-28T21:11:48.671Z,1.80
2022-07-28T21:14:17.351Z,2.30
2022-07-28T21:16:45.667Z,1.77
2022-07-28T21:19:13.958Z,2.07
2022-07-28T21:21:42.168Z,1.50
2022-07-28T21:24:13.591Z,1.53
2022-07-28T21:26:43.046Z,1.93
2022-07-28T21:31:58.493Z,1.60
2022-07-28T21:34:34.325Z,1.40
2022-07-28T21:37:03.013Z,1.50
2022-07-28T21:39:33.467Z,1.47
2022-07-28T21:42:04.703Z,1.50
2022-07-28T21:44:35.810Z,1.67
2022-07-28T21:47:04.080Z,1.60
2022-07-28T21:49:32.495Z,2.20
2022-07-28T21:52:00.935Z,1.57
2022-07-28T21:54:34.143Z,1.33
2022-07-28T21:57:02.323Z,1.40
2022-07-28T21:59:30.493Z,1.40
2022-07-28T22:01:58.698Z,1.40
2022-07-28T22:04:28.639Z,1.40
2022-07-28T22:06:56.842Z,1.30
2022-07-28T22:09:25.098Z,1.30
2022-07-28T22:11:55.062Z,1.40
2022-07-28T22:14:25.495Z,1.37
2022-07-28T22:16:53.775Z,1.57
2022-07-28T22:19:21.972Z,1.50
2022-07-28T22:21:50.102Z,1.43
2022-07-28T22:24:22.725Z,1.30
2022-07-28T22:26:51.381Z,1.67
2022-07-28T22:29:20.906Z,1.63
2022-07-28T22:31:49.101Z,1.67
2022-07-28T22:34:17.700Z,1.60
2022-07-28T22:36:46.036Z,1.43
2022-07-28T22:39:14.765Z,1.57
2022-07-28T22:41:42.911Z,1.30
2022-07-28T22:44:15.343Z,1.40
2022-07-28T22:46:46.147Z,1.40
2022-07-28T22:49:14.446Z,1.50
2022-07-28T22:51:46.481Z,1.40
2022-07-28T22:54:17.440Z,1.40
2022-07-28T22:56:46.122Z,1.57
2022-07-28T22:59:15.748Z,1.80
2022-07-28T23:01:49.919Z,1.40
2022-07-28T23:04:18.312Z,1.80
2022-07-28T23:06:46.910Z,1.80
2022-07-28T23:09:15.131Z,1.70
2022-07-28T23:11:55.913Z,1.60
2022-07-28T23:14:24.609Z,1.60
2022-07-28T23:16:55.163Z,1.90
2022-07-28T23:19:23.374Z,1.50
2022-07-28T23:21:51.603Z,1.60
2022-07-28T23:24:19.911Z,2.03
2022-07-28T23:26:48.475Z,1.80
2022-07-28T23:29:16.882Z,1.60
2022-07-28T23:31:45.144Z,1.60
2022-07-28T23:34:15.279Z,1.70
2022-07-28T23:36:44.335Z,2.10
2022-07-28T23:39:12.970Z,1.87
2022-07-28T23:41:41.209Z,2.10
2022-07-28T23:44:09.511Z,1.90
2022-07-28T23:46:37.754Z,2.10
2022-07-28T23:49:06.557Z,1.70
2022-07-28T23:51:47.788Z,1.97
2022-07-28T23:54:17.350Z,2.00
2022-07-28T23:56:46.161Z,2.20
2022-07-28T23:59:14.926Z,2.00
